Time;durP1;ratioP1;P1;durP2;ratioP2;P2;SDS_P1;SDS_P2;PMS_P1;PMS_P2;Temp;Humidity;BMP_temperature;BMP_pressure;BME280_temperature;BME280_humidity;BME280_pressure;Samples;Min_cycle;Max_cycle;Signal;HPM_P1;HPM_P2
2021/07/10 00:01:51;;;;;;;20.05;9.70;;;;;;;;;;5039530;28;20046;-57
2021/07/10 00:04:17;;;;;;;19.85;9.48;;;;;;;;;;5002057;28;20124;-57
2021/07/10 00:06:46;;;;;;;20.23;9.88;;;;;;;;;;5004101;28;20042;-56
2021/07/10 00:09:12;;;;;;;20.05;9.57;;;;;;;;;;4999362;28;20062;-57
2021/07/10 00:11:39;;;;;;;17.48;9.68;;;;;;;;;;4985490;28;20060;-56
2021/07/10 00:14:06;;;;;;;20.92;10.07;;;;;;;;;;4991408;28;20042;-57
2021/07/10 00:16:32;;;;;;;20.35;10.13;;;;;;;;;;5021478;28;20087;-57
2021/07/10 00:19:00;;;;;;;18.98;9.75;;;;;;;;;;5016849;28;20056;-57
2021/07/10 00:21:28;;;;;;;21.02;10.77;;;;;;;;;;5005261;28;20033;-57
2021/07/10 00:23:54;;;;;;;17.42;8.88;;;;;;;;;;5002729;28;20034;-57
2021/07/10 00:26:20;;;;;;;20.23;10.15;;;;;;;;;;5034451;28;20096;-57
2021/07/10 00:28:47;;;;;;;21.25;10.43;;;;;;;;;;5032167;28;20052;-57
2021/07/10 00:31:13;;;;;;;23.75;10.40;;;;;;;;;;5017683;28;20069;-57
2021/07/10 00:33:40;;;;;;;18.38;9.85;;;;;;;;;;5000934;28;20042;-57
2021/07/10 00:36:08;;;;;;;23.63;10.23;;;;;;;;;;4997330;28;20046;-57
2021/07/10 00:38:34;;;;;;;19.63;10.68;;;;;;;;;;5017145;28;20308;-57
2021/07/10 00:41:01;;;;;;;20.20;10.50;;;;;;;;;;4999546;28;20038;-57
2021/07/10 00:43:27;;;;;;;21.75;9.68;;;;;;;;;;4998900;28;20476;-57
2021/07/10 00:45:57;;;;;;;16.98;9.73;;;;;;;;;;4994160;28;20129;-57
2021/07/10 00:48:23;;;;;;;24.45;10.13;;;;;;;;;;5001596;28;20038;-57
2021/07/10 00:50:50;;;;;;;21.90;10.30;;;;;;;;;;4999292;28;20046;-57
2021/07/10 00:53:18;;;;;;;22.52;10.68;;;;;;;;;;5000661;28;20038;-57
2021/07/10 00:55:44;;;;;;;22.00;11.18;;;;;;;;;;4997603;28;20081;-57
2021/07/10 00:58:11;;;;;;;20.70;10.43;;;;;;;;;;5017809;28;20041;-57
2021/07/10 01:00:39;;;;;;;23.88;10.40;;;;;;;;;;4997884;28;20034;-57
2021/07/10 01:03:06;;;;;;;22.35;10.95;;;;;;;;;;4984300;28;20034;-57
2021/07/10 01:05:34;;;;;;;22.63;10.68;;;;;;;;;;5014869;28;20115;-57
2021/07/10 01:08:01;;;;;;;27.00;12.45;;;;;;;;;;5002837;28;20046;-55
2021/07/10 01:10:28;;;;;;;21.13;10.48;;;;;;;;;;5016641;28;20094;-57
2021/07/10 01:12:55;;;;;;;19.45;10.50;;;;;;;;;;5005295;28;20100;-57
2021/07/10 01:15:23;;;;;;;21.20;10.60;;;;;;;;;;5017659;28;20050;-57
2021/07/10 01:17:50;;;;;;;23.48;10.82;;;;;;;;;;5003681;28;20042;-57
2021/07/10 01:20:20;;;;;;;20.33;11.02;;;;;;;;;;5035934;28;20128;-57
2021/07/10 01:22:48;;;;;;;23.45;11.20;;;;;;;;;;5000935;28;20046;-57
2021/07/10 01:25:16;;;;;;;;;;;;;;;;;;5006871;28;20128;-56
2021/07/10 01:27:42;;;;;;;18.25;10.13;;;;;;;;;;5002044;28;19925;-57
2021/07/10 01:30:11;;;;;;;23.70;11.35;;;;;;;;;;5007704;28;20041;-57
2021/07/10 01:32:38;;;;;;;25.95;11.65;;;;;;;;;;5001856;28;20042;-57
2021/07/10 01:35:05;;;;;;;21.17;10.85;;;;;;;;;;5023123;28;20047;-56
2021/07/10 01:37:31;;;;;;;22.45;11.48;;;;;;;;;;5003236;28;20091;-57
2021/07/10 01:39:59;;;;;;;24.85;12.23;;;;;;;;;;5007496;28;20119;-57
2021/07/10 01:42:26;;;;;;;27.13;11.32;;;;;;;;;;5020618;28;20045;-57
2021/07/10 01:44:52;;;;;;;21.95;10.85;;;;;;;;;;5022974;28;20058;-56
2021/07/10 01:47:19;;;;;;;26.63;10.82;;;;;;;;;;5004099;28;20060;-55
2021/07/10 01:49:45;;;;;;;19.58;10.38;;;;;;;;;;5024564;28;20038;-56
2021/07/10 01:52:12;;;;;;;27.83;12.65;;;;;;;;;;5003867;28;20029;-57
2021/07/10 01:54:38;;;;;;;23.77;11.15;;;;;;;;;;5007199;28;20041;-57
2021/07/10 01:57:08;;;;;;;24.77;11.07;;;;;;;;;;5001541;28;20096;-55
2021/07/10 01:59:35;;;;;;;19.77;10.80;;;;;;;;;;5019749;28;20104;-57
2021/07/10 02:02:01;;;;;;;21.33;11.48;;;;;;;;;;5016372;28;20042;-56
2021/07/10 02:04:28;;;;;;;24.70;11.30;;;;;;;;;;5001853;28;20057;-56
2021/07/10 02:06:54;;;;;;;21.08;10.77;;;;;;;;;;5002452;28;20094;-56
2021/07/10 02:09:22;;;;;;;22.42;9.98;;;;;;;;;;5030249;28;20049;-56
2021/07/10 02:11:49;;;;;;;20.38;10.45;;;;;;;;;;5006694;28;20060;-57
2021/07/10 02:14:18;;;;;;;24.88;10.43;;;;;;;;;;5006942;28;20046;-56
2021/07/10 02:16:45;;;;;;;20.75;9.93;;;;;;;;;;5003209;28;20124;-57
2021/07/10 02:19:11;;;;;;;21.27;9.70;;;;;;;;;;5001126;28;20042;-57
2021/07/10 02:21:38;;;;;;;17.77;9.13;;;;;;;;;;5005186;28;20053;-53
2021/07/10 02:24:05;;;;;;;18.25;9.38;;;;;;;;;;5002817;28;20053;-53
2021/07/10 02:26:31;;;;;;;19.92;9.70;;;;;;;;;;5002440;28;20049;-56
2021/07/10 02:28:58;;;;;;;18.38;8.93;;;;;;;;;;4998819;28;20057;-54
2021/07/10 02:31:26;;;;;;;20.33;9.90;;;;;;;;;;5003955;28;20038;-55
2021/07/10 02:33:52;;;;;;;16.13;8.63;;;;;;;;;;4996558;28;20148;-56
2021/07/10 02:36:18;;;;;;;16.73;9.13;;;;;;;;;;5002756;28;20030;-55
2021/07/10 02:38:48;;;;;;;18.15;9.27;;;;;;;;;;4999103;28;20042;-57
2021/07/10 02:41:14;;;;;;;16.58;8.57;;;;;;;;;;5002960;28;20042;-57
2021/07/10 02:43:41;;;;;;;18.73;9.30;;;;;;;;;;5003023;28;20123;-57
2021/07/10 02:46:08;;;;;;;19.95;8.98;;;;;;;;;;4979092;28;20161;-57
2021/07/10 02:48:36;;;;;;;17.13;8.23;;;;;;;;;;4986398;28;20030;-56
2021/07/10 02:51:03;;;;;;;19.00;9.03;;;;;;;;;;4998899;28;20053;-56
2021/07/10 02:53:29;;;;;;;18.08;8.85;;;;;;;;;;5004426;28;20376;-58
2021/07/10 02:55:58;;;;;;;19.80;9.20;;;;;;;;;;4998772;28;20122;-57
2021/07/10 02:58:25;;;;;;;17.45;9.10;;;;;;;;;;5001832;28;20046;-57
2021/07/10 03:00:53;;;;;;;19.52;9.18;;;;;;;;;;4999321;28;20046;-56
2021/07/10 03:03:20;;;;;;;21.17;9.63;;;;;;;;;;5035413;28;20045;-56
2021/07/10 03:05:51;;;;;;;17.95;8.40;;;;;;;;;;5000958;28;20061;-55
2021/07/10 03:08:20;;;;;;;20.42;8.98;;;;;;;;;;5004094;28;20034;-55
2021/07/10 03:10:47;;;;;;;16.73;8.77;;;;;;;;;;4992434;28;20058;-56
2021/07/10 03:13:14;;;;;;;21.13;9.25;;;;;;;;;;4985008;28;20031;-58
2021/07/10 03:15:40;;;;;;;18.63;9.32;;;;;;;;;;4984462;28;20052;-59
2021/07/10 03:18:07;;;;;;;16.88;8.77;;;;;;;;;;5004243;28;20057;-56
2021/07/10 03:20:33;;;;;;;18.02;9.18;;;;;;;;;;4999806;28;20057;-54
2021/07/10 03:23:01;;;;;;;16.60;8.20;;;;;;;;;;5002078;28;20046;-56
2021/07/10 03:25:27;;;;;;;19.50;8.60;;;;;;;;;;4995965;28;20034;-54
2021/07/10 03:27:56;;;;;;;17.73;8.27;;;;;;;;;;4981978;28;20062;-56
2021/07/10 03:30:23;;;;;;;15.52;8.00;;;;;;;;;;4984200;28;20097;-56
2021/07/10 03:32:49;;;;;;;16.30;8.73;;;;;;;;;;4980959;28;20057;-54
2021/07/10 03:35:19;;;;;;;17.92;8.88;;;;;;;;;;4982911;28;20121;-56
2021/07/10 03:37:46;;;;;;;15.52;8.35;;;;;;;;;;4979812;28;20140;-56
2021/07/10 03:40:16;;;;;;;18.70;9.50;;;;;;;;;;4981557;28;20042;-56
2021/07/10 03:42:42;;;;;;;16.58;8.68;;;;;;;;;;4984564;28;20050;-55
2021/07/10 03:45:10;;;;;;;18.88;9.05;;;;;;;;;;4982725;28;20031;-54
2021/07/10 03:47:37;;;;;;;14.40;7.78;;;;;;;;;;4979290;28;20034;-54
2021/07/10 03:50:04;;;;;;;13.02;7.20;;;;;;;;;;4956408;28;20053;-52
2021/07/10 03:52:30;;;;;;;13.63;7.60;;;;;;;;;;4974295;28;20054;-55
2021/07/10 03:54:57;;;;;;;15.15;7.45;;;;;;;;;;4982643;28;20039;-56
2021/07/10 03:57:24;;;;;;;16.90;7.78;;;;;;;;;;4978944;28;20050;-56
2021/07/10 03:59:51;;;;;;;14.90;7.67;;;;;;;;;;4983653;28;20089;-55
2021/07/10 04:02:17;;;;;;;13.55;8.00;;;;;;;;;;4979099;28;20296;-57
2021/07/10 04:04:44;;;;;;;15.65;8.57;;;;;;;;;;5014352;28;20110;-56
2021/07/10 04:07:10;;;;;;;13.52;7.82;;;;;;;;;;4980266;28;20043;-56
2021/07/10 04:09:36;;;;;;;16.98;8.75;;;;;;;;;;4982000;28;20034;-56
2021/07/10 04:12:03;;;;;;;16.33;8.35;;;;;;;;;;4981730;28;20097;-55
2021/07/10 04:14:31;;;;;;;14.23;8.02;;;;;;;;;;4979656;28;20042;-56
2021/07/10 04:16:58;;;;;;;16.27;8.55;;;;;;;;;;4980524;28;20042;-56
2021/07/10 04:19:26;;;;;;;19.33;9.65;;;;;;;;;;4978790;28;20054;-56
2021/07/10 04:21:53;;;;;;;16.75;9.82;;;;;;;;;;4982811;28;20082;-53
2021/07/10 04:24:19;;;;;;;16.80;9.98;;;;;;;;;;4977849;28;20046;-55
2021/07/10 04:26:46;;;;;;;21.40;11.52;;;;;;;;;;4998261;28;20039;-57
2021/07/10 04:29:12;;;;;;;20.13;10.80;;;;;;;;;;4969970;28;20078;-54
2021/07/10 04:31:42;;;;;;;25.17;11.63;;;;;;;;;;4982529;28;20154;-54
2021/07/10 04:34:08;;;;;;;24.35;12.15;;;;;;;;;;4978275;28;20140;-53
2021/07/10 04:36:35;;;;;;;22.23;12.20;;;;;;;;;;4983541;28;20132;-56
2021/07/10 04:39:01;;;;;;;21.30;12.30;;;;;;;;;;4978660;28;20054;-57
2021/07/10 04:41:28;;;;;;;24.20;12.18;;;;;;;;;;4982835;28;20107;-56
2021/07/10 04:43:54;;;;;;;25.80;13.45;;;;;;;;;;4980148;28;20129;-57
2021/07/10 04:46:21;;;;;;;24.45;13.27;;;;;;;;;;4983790;28;20046;-56
2021/07/10 04:48:48;;;;;;;28.60;14.00;;;;;;;;;;4981536;28;20042;-55
2021/07/10 04:51:15;;;;;;;29.23;14.00;;;;;;;;;;4984048;28;20074;-56
2021/07/10 04:53:41;;;;;;;22.98;12.75;;;;;;;;;;4981957;28;20050;-56
2021/07/10 04:56:08;;;;;;;26.48;13.63;;;;;;;;;;4980222;28;20133;-54
2021/07/10 04:58:34;;;;;;;25.98;13.05;;;;;;;;;;4983900;28;20083;-56
2021/07/10 05:01:04;;;;;;;26.38;13.55;;;;;;;;;;4982047;28;20457;-57
2021/07/10 05:03:31;;;;;;;30.40;14.05;;;;;;;;;;4997676;28;20038;-56
2021/07/10 05:05:59;;;;;;;25.38;13.13;;;;;;;;;;4977563;28;20062;-55
2021/07/10 05:08:26;;;;;;;26.75;13.38;;;;;;;;;;4984605;28;20152;-56
2021/07/10 05:10:52;;;;;;;29.27;14.73;;;;;;;;;;4979275;28;20043;-55
2021/07/10 05:13:19;;;;;;;29.02;15.18;;;;;;;;;;4984289;28;20046;-56
2021/07/10 05:15:45;;;;;;;37.40;15.77;;;;;;;;;;4976280;28;20066;-56
2021/07/10 05:18:11;;;;;;;30.38;14.68;;;;;;;;;;4981519;28;20066;-56
2021/07/10 05:20:39;;;;;;;29.30;15.55;;;;;;;;;;4979389;28;20054;-56
2021/07/10 05:23:07;;;;;;;28.70;14.18;;;;;;;;;;4982675;28;20039;-57
2021/07/10 05:25:33;;;;;;;29.60;15.20;;;;;;;;;;4979335;28;20066;-56
2021/07/10 05:28:00;;;;;;;31.02;16.05;;;;;;;;;;4981543;28;20058;-56
2021/07/10 05:30:30;;;;;;;32.60;16.92;;;;;;;;;;4979284;28;20057;-57
2021/07/10 05:32:57;;;;;;;35.35;17.35;;;;;;;;;;4982377;28;20038;-57
2021/07/10 05:35:25;;;;;;;36.10;17.67;;;;;;;;;;4982580;28;20050;-57
2021/07/10 05:37:52;;;;;;;;;;;;;;;;;;4981488;28;20061;-57
2021/07/10 05:40:20;;;;;;;34.65;17.55;;;;;;;;;;4982114;28;19941;-56
2021/07/10 05:42:48;;;;;;;42.78;19.75;;;;;;;;;;4978793;28;20056;-57
2021/07/10 05:45:15;;;;;;;39.58;20.10;;;;;;;;;;4983813;28;20059;-57
2021/07/10 05:47:42;;;;;;;36.78;17.63;;;;;;;;;;4979070;28;20034;-57
2021/07/10 05:50:08;;;;;;;37.25;19.08;;;;;;;;;;4982731;28;20181;-55
2021/07/10 05:52:35;;;;;;;36.53;18.00;;;;;;;;;;4979734;28;20062;-57
2021/07/10 05:55:02;;;;;;;37.67;17.52;;;;;;;;;;4982178;28;20113;-57
2021/07/10 05:57:30;;;;;;;36.13;17.58;;;;;;;;;;4979170;28;20129;-56
2021/07/10 05:59:56;;;;;;;39.42;18.45;;;;;;;;;;4983976;28;20058;-55
2021/07/10 06:02:22;;;;;;;35.97;17.55;;;;;;;;;;4980416;28;20067;-57
2021/07/10 06:04:49;;;;;;;36.40;17.42;;;;;;;;;;4983749;28;20182;-57
2021/07/10 06:07:15;;;;;;;40.25;19.25;;;;;;;;;;4979067;28;20089;-56
2021/07/10 06:09:44;;;;;;;38.85;20.05;;;;;;;;;;4984880;28;20062;-57
2021/07/10 06:12:10;;;;;;;43.13;19.88;;;;;;;;;;4978809;28;20058;-56
2021/07/10 06:14:38;;;;;;;50.00;20.08;;;;;;;;;;4984567;28;20059;-57
2021/07/10 06:17:05;;;;;;;39.67;18.23;;;;;;;;;;4981027;28;20035;-57
2021/07/10 06:19:31;;;;;;;47.38;20.27;;;;;;;;;;4981426;28;20046;-56
2021/07/10 06:22:04;;;;;;;39.70;19.50;;;;;;;;;;4982822;28;20130;-56
2021/07/10 06:24:30;;;;;;;46.35;19.48;;;;;;;;;;4978500;28;20057;-58
2021/07/10 06:26:56;;;;;;;40.63;17.45;;;;;;;;;;4983124;28;20049;-58
2021/07/10 06:29:24;;;;;;;38.17;17.90;;;;;;;;;;4978642;28;20043;-57
2021/07/10 06:31:52;;;;;;;46.35;18.77;;;;;;;;;;4982756;28;20049;-55
2021/07/10 06:34:20;;;;;;;38.70;18.10;;;;;;;;;;4978457;28;20108;-58
2021/07/10 06:36:48;;;;;;;41.28;18.33;;;;;;;;;;4982794;28;20288;-58
2021/07/10 06:39:15;;;;;;;42.65;18.23;;;;;;;;;;4980273;28;20058;-58
2021/07/10 06:41:44;;;;;;;44.95;17.42;;;;;;;;;;4982363;28;20038;-58
2021/07/10 06:44:10;;;;;;;39.28;17.20;;;;;;;;;;4978320;28;20038;-58
2021/07/10 06:46:37;;;;;;;39.28;17.45;;;;;;;;;;4983187;28;20051;-58
2021/07/10 06:49:05;;;;;;;36.97;17.23;;;;;;;;;;4979015;28;20050;-59
2021/07/10 06:51:31;;;;;;;39.27;16.57;;;;;;;;;;4982008;28;20054;-58
2021/07/10 06:53:58;;;;;;;35.20;16.38;;;;;;;;;;4979240;28;20324;-58
2021/07/10 06:56:24;;;;;;;32.70;16.33;;;;;;;;;;4984037;28;20050;-58
2021/07/10 06:58:51;;;;;;;37.25;16.23;;;;;;;;;;4978828;28;20050;-58
2021/07/10 07:01:18;;;;;;;37.63;16.90;;;;;;;;;;4982222;28;20040;-57
2021/07/10 07:03:44;;;;;;;35.05;16.40;;;;;;;;;;4981608;28;20039;-58
2021/07/10 07:06:12;;;;;;;37.28;17.05;;;;;;;;;;4979289;28;20061;-58
2021/07/10 07:08:39;;;;;;;33.60;16.10;;;;;;;;;;4980768;28;20058;-58
2021/07/10 07:11:06;;;;;;;36.65;15.82;;;;;;;;;;4979254;28;20315;-58
2021/07/10 07:13:33;;;;;;;32.92;14.52;;;;;;;;;;4981480;28;20042;-58
2021/07/10 07:15:59;;;;;;;32.00;13.93;;;;;;;;;;4977892;28;20050;-59
2021/07/10 07:18:26;;;;;;;35.08;14.68;;;;;;;;;;4985513;28;20146;-58
2021/07/10 07:21:07;;;;;;;30.02;14.20;;;;;;;;;;4978905;28;20043;-58
2021/07/10 07:23:35;;;;;;;38.35;15.82;;;;;;;;;;4986374;28;20053;-58
2021/07/10 07:26:02;;;;;;;31.67;14.23;;;;;;;;;;5005396;28;20229;-58
2021/07/10 07:28:28;;;;;;;32.38;15.20;;;;;;;;;;4987708;28;20054;-58
2021/07/10 07:30:58;;;;;;;31.77;14.50;;;;;;;;;;4983060;28;20042;-59
2021/07/10 07:33:27;;;;;;;32.92;14.23;;;;;;;;;;4985633;28;20034;-58
2021/07/10 07:35:54;;;;;;;30.25;14.18;;;;;;;;;;4981232;28;20035;-58
2021/07/10 07:38:20;;;;;;;44.17;15.75;;;;;;;;;;5017773;28;20047;-58
2021/07/10 07:41:00;;;;;;;34.17;15.30;;;;;;;;;;4980902;28;20113;-58
2021/07/10 07:43:29;;;;;;;29.13;13.23;;;;;;;;;;4981927;28;20067;-58
2021/07/10 07:45:56;;;;;;;32.50;14.85;;;;;;;;;;4979343;28;20062;-58
2021/07/10 07:48:22;;;;;;;32.35;13.73;;;;;;;;;;4982303;28;20039;-58
2021/07/10 07:50:49;;;;;;;34.63;13.43;;;;;;;;;;4996122;28;20049;-58
2021/07/10 07:53:16;;;;;;;28.40;13.70;;;;;;;;;;4997757;28;20049;-59
2021/07/10 07:55:43;;;;;;;35.35;13.93;;;;;;;;;;4982373;28;20038;-58
2021/07/10 07:58:11;;;;;;;37.33;14.50;;;;;;;;;;4979522;28;20035;-58
2021/07/10 08:00:39;;;;;;;31.93;13.97;;;;;;;;;;4981900;28;20086;-58
2021/07/10 08:03:05;;;;;;;28.95;12.68;;;;;;;;;;4980186;28;20300;-58
2021/07/10 08:05:31;;;;;;;34.47;14.63;;;;;;;;;;4982309;28;20051;-58
2021/07/10 08:07:58;;;;;;;27.33;13.05;;;;;;;;;;4979548;28;20039;-58
2021/07/10 08:10:24;;;;;;;30.33;14.25;;;;;;;;;;4982949;28;20189;-58
2021/07/10 08:12:51;;;;;;;28.33;13.52;;;;;;;;;;4979016;28;20043;-59
2021/07/10 08:15:20;;;;;;;26.50;11.60;;;;;;;;;;4981694;28;20121;-58
2021/07/10 08:17:48;;;;;;;28.92;11.07;;;;;;;;;;4979113;28;20140;-58
2021/07/10 08:20:16;;;;;;;35.63;16.90;;;;;;;;;;4982771;28;20042;-58
2021/07/10 08:22:43;;;;;;;34.08;14.93;;;;;;;;;;4978667;28;20038;-58
2021/07/10 08:25:10;;;;;;;31.63;12.57;;;;;;;;;;4984848;28;20047;-58
2021/07/10 08:27:37;;;;;;;29.77;12.75;;;;;;;;;;4999899;28;20046;-58
2021/07/10 08:30:04;;;;;;;26.55;11.35;;;;;;;;;;5037931;28;20038;-58
2021/07/10 08:32:32;;;;;;;25.05;10.20;;;;;;;;;;5001100;28;20034;-58
2021/07/10 08:34:59;;;;;;;28.27;11.40;;;;;;;;;;5004969;28;20066;-59
2021/07/10 08:37:25;;;;;;;26.17;11.45;;;;;;;;;;5003512;28;20048;-58
2021/07/10 08:39:52;;;;;;;28.95;12.48;;;;;;;;;;5017997;28;20192;-58
2021/07/10 08:42:19;;;;;;;26.92;12.40;;;;;;;;;;5021002;28;20090;-59
2021/07/10 08:44:50;;;;;;;25.42;10.90;;;;;;;;;;5001523;28;20041;-58
2021/07/10 08:47:22;;;;;;;26.50;10.57;;;;;;;;;;5004172;28;20049;-59
2021/07/10 08:49:51;;;;;;;21.27;9.68;;;;;;;;;;5034009;28;20089;-58
2021/07/10 08:52:20;;;;;;;19.75;9.68;;;;;;;;;;5023300;28;20038;-58
2021/07/10 08:54:47;;;;;;;22.92;9.80;;;;;;;;;;5001392;28;20053;-58
2021/07/10 08:57:14;;;;;;;382.70;26.15;;;;;;;;;;5000559;28;20030;-58
2021/07/10 08:59:42;;;;;;;22.15;9.20;;;;;;;;;;5018322;28;20045;-58
2021/07/10 09:02:09;;;;;;;19.70;9.02;;;;;;;;;;5037409;28;20034;-58
2021/07/10 09:04:35;;;;;;;18.88;9.27;;;;;;;;;;5011037;28;20098;-58
2021/07/10 09:07:03;;;;;;;20.98;9.70;;;;;;;;;;4999402;28;20046;-58
2021/07/10 09:09:41;;;;;;;22.63;9.30;;;;;;;;;;5000590;28;20046;-58
2021/07/10 09:12:07;;;;;;;19.23;8.30;;;;;;;;;;5003331;28;20152;-58
2021/07/10 09:14:37;;;;;;;16.73;7.47;;;;;;;;;;5000896;28;20426;-58
2021/07/10 09:17:20;;;;;;;14.77;7.50;;;;;;;;;;5003223;28;20034;-58
2021/07/10 09:19:46;;;;;;;21.77;8.10;;;;;;;;;;5018692;28;20029;-59
2021/07/10 09:22:23;;;;;;;16.70;8.00;;;;;;;;;;5003306;28;20065;-59
2021/07/10 09:24:50;;;;;;;18.58;7.45;;;;;;;;;;5030081;28;20042;-58
2021/07/10 09:27:16;;;;;;;15.43;6.10;;;;;;;;;;5036390;28;20046;-58
2021/07/10 09:29:44;;;;;;;13.30;5.72;;;;;;;;;;5034402;28;20045;-58
2021/07/10 09:32:11;;;;;;;11.73;5.55;;;;;;;;;;5005878;28;20046;-59
2021/07/10 09:34:43;;;;;;;12.88;4.88;;;;;;;;;;5003136;28;20046;-59
2021/07/10 09:37:11;;;;;;;10.57;5.18;;;;;;;;;;5004599;28;20053;-58
2021/07/10 09:39:42;;;;;;;13.07;5.90;;;;;;;;;;4992525;28;20061;-58
2021/07/10 09:42:09;;;;;;;12.63;6.32;;;;;;;;;;5016190;28;20057;-59
2021/07/10 09:44:43;;;;;;;12.88;6.95;;;;;;;;;;5019259;28;20136;-58
2021/07/10 09:47:09;;;;;;;19.17;7.07;;;;;;;;;;5000066;28;20042;-58
2021/07/10 09:49:36;;;;;;;13.15;6.03;;;;;;;;;;5007156;28;20061;-59
2021/07/10 09:52:04;;;;;;;15.57;6.03;;;;;;;;;;5002842;28;20289;-67
2021/07/10 09:54:31;;;;;;;16.13;5.72;;;;;;;;;;5007376;28;20042;-58
2021/07/10 09:57:04;;;;;;;12.85;6.90;;;;;;;;;;5002215;28;20052;-58
2021/07/10 09:59:30;;;;;;;17.23;8.57;;;;;;;;;;5007158;28;20037;-58
2021/07/10 10:01:57;;;;;;;19.42;7.53;;;;;;;;;;5003050;28;20131;-58
2021/07/10 10:04:25;;;;;;;18.73;8.68;;;;;;;;;;5006844;28;20049;-58
2021/07/10 10:06:52;;;;;;;17.75;8.07;;;;;;;;;;5000031;28;20058;-58
2021/07/10 10:09:20;;;;;;;16.13;8.13;;;;;;;;;;5004818;28;20041;-58
2021/07/10 10:11:48;;;;;;;21.70;9.32;;;;;;;;;;5003746;28;20053;-58
2021/07/10 10:14:16;;;;;;;14.93;7.93;;;;;;;;;;5006426;28;20057;-58
2021/07/10 10:16:46;;;;;;;16.75;8.70;;;;;;;;;;5008897;28;20042;-58
2021/07/10 10:19:13;;;;;;;13.43;7.28;;;;;;;;;;5024009;28;20087;-58
2021/07/10 10:21:39;;;;;;;18.00;7.80;;;;;;;;;;5003082;28;20057;-58
2021/07/10 10:24:06;;;;;;;14.98;7.43;;;;;;;;;;5024541;28;20120;-58
2021/07/10 10:26:33;;;;;;;17.10;7.82;;;;;;;;;;5005055;28;20033;-58
2021/07/10 10:29:00;;;;;;;15.82;7.10;;;;;;;;;;5001251;28;20096;-58
2021/07/10 10:31:28;;;;;;;18.10;7.80;;;;;;;;;;5003039;28;20173;-58
2021/07/10 10:33:55;;;;;;;16.45;9.02;;;;;;;;;;5002038;28;20049;-58
2021/07/10 10:36:23;;;;;;;20.25;10.55;;;;;;;;;;5006201;28;20057;-58
2021/07/10 10:38:49;;;;;;;21.33;9.70;;;;;;;;;;5023136;28;20060;-58
2021/07/10 10:41:16;;;;;;;18.90;9.55;;;;;;;;;;5003599;28;20042;-58
2021/07/10 10:43:43;;;;;;;33.03;15.73;;;;;;;;;;4985925;28;20052;-58
2021/07/10 10:46:13;;;;;;;33.60;17.67;;;;;;;;;;5005889;28;20097;-58
2021/07/10 10:48:42;;;;;;;18.90;8.70;;;;;;;;;;5002887;28;20131;-58
2021/07/10 10:51:28;;;;;;;13.57;7.28;;;;;;;;;;5003882;28;20038;-58
2021/07/10 10:54:15;;;;;;;12.93;6.53;;;;;;;;;;5002298;28;20041;-58
2021/07/10 10:56:42;;;;;;;18.35;7.97;;;;;;;;;;5004774;28;20040;-58
2021/07/10 10:59:27;;;;;;;13.55;7.32;;;;;;;;;;5012785;28;20092;-57
2021/07/10 11:01:54;;;;;;;13.73;7.45;;;;;;;;;;5001595;28;20045;-59
2021/07/10 11:04:35;;;;;;;27.63;8.40;;;;;;;;;;5011125;28;20041;-58
2021/07/10 11:07:17;;;;;;;16.30;6.78;;;;;;;;;;5022017;28;20099;-59
2021/07/10 11:10:16;;;;;;;15.63;7.72;;;;;;;;;;5001762;28;20085;-58
2021/07/10 11:12:51;;;;;;;17.42;7.18;;;;;;;;;;4926980;29;20048;-59
2021/07/10 11:15:36;;;;;;;15.88;7.05;;;;;;;;;;4923080;29;20035;-59
2021/07/10 11:18:04;;;;;;;11.80;6.13;;;;;;;;;;4975123;28;20045;-58
2021/07/10 11:20:31;;;;;;;;;;;;;;;;;;5002318;28;20041;-60
2021/07/10 11:22:58;;;;;;;15.27;6.18;;;;;;;;;;5004318;28;19928;-60
2021/07/10 11:25:44;;;;;;;14.05;7.45;;;;;;;;;;5015778;28;20054;-59
2021/07/10 11:28:13;;;;;;;14.00;6.57;;;;;;;;;;4999537;28;20034;-59
2021/07/10 11:30:44;;;;;;;13.73;6.53;;;;;;;;;;5021519;28;20038;-60
2021/07/10 11:33:11;;;;;;;14.45;6.45;;;;;;;;;;5005779;28;20077;-59
2021/07/10 11:35:39;;;;;;;12.82;6.10;;;;;;;;;;5001335;28;20030;-59
2021/07/10 11:38:05;;;;;;;14.07;8.20;;;;;;;;;;5004311;28;20042;-60
2021/07/10 11:40:39;;;;;;;20.33;7.10;;;;;;;;;;5000002;28;20038;-59
2021/07/10 11:43:06;;;;;;;15.95;7.80;;;;;;;;;;5001161;28;20042;-59
2021/07/10 11:45:36;;;;;;;16.50;7.72;;;;;;;;;;4998584;28;20070;-59
2021/07/10 11:48:20;;;;;;;12.10;6.50;;;;;;;;;;5002269;28;20038;-60
2021/07/10 11:50:55;;;;;;;17.13;7.20;;;;;;;;;;4997095;28;20184;-60
2021/07/10 11:53:22;;;;;;;14.70;7.45;;;;;;;;;;5034731;28;20057;-59
2021/07/10 11:55:48;;;;;;;12.77;6.07;;;;;;;;;;5030207;28;20042;-60
2021/07/10 11:58:15;;;;;;;14.68;6.88;;;;;;;;;;5003194;28;20042;-61
2021/07/10 12:00:43;;;;;;;12.65;6.50;;;;;;;;;;4998968;28;20042;-59
2021/07/10 12:03:17;;;;;;;11.23;6.10;;;;;;;;;;5002361;28;20050;-60
2021/07/10 12:05:44;;;;;;;17.55;6.15;;;;;;;;;;4998819;28;20050;-61
2021/07/10 12:08:10;;;;;;;12.35;6.00;;;;;;;;;;5003337;28;20065;-60
2021/07/10 12:10:37;;;;;;;11.73;6.45;;;;;;;;;;5001864;28;20120;-60
2021/07/10 12:13:08;;;;;;;11.10;6.22;;;;;;;;;;4999275;28;20053;-59
2021/07/10 12:15:38;;;;;;;11.13;5.20;;;;;;;;;;5001564;28;20108;-60
2021/07/10 12:18:07;;;;;;;12.60;5.47;;;;;;;;;;4997875;28;20046;-59
2021/07/10 12:20:35;;;;;;;12.95;6.32;;;;;;;;;;5001628;28;20058;-60
2021/07/10 12:23:03;;;;;;;12.52;5.80;;;;;;;;;;4996628;28;20061;-59
2021/07/10 12:25:30;;;;;;;;;;;;;;;;;;4998476;28;20097;-60
2021/07/10 12:27:57;;;;;;;11.18;6.28;;;;;;;;;;4993957;28;19962;-60
2021/07/10 12:30:44;;;;;;;11.43;6.18;;;;;;;;;;4982101;28;20054;-60
2021/07/10 12:33:28;;;;;;;13.27;7.30;;;;;;;;;;4994051;28;20054;-60
2021/07/10 12:36:05;;;;;;;12.02;6.10;;;;;;;;;;4979494;28;20038;-59
2021/07/10 12:38:31;;;;;;;11.50;6.28;;;;;;;;;;4976662;28;20046;-60
2021/07/10 12:41:13;;;;;;;13.13;6.18;;;;;;;;;;4982456;28;20070;-59
2021/07/10 12:43:39;;;;;;;15.20;8.43;;;;;;;;;;4978146;28;20039;-60
2021/07/10 12:46:06;;;;;;;14.75;8.23;;;;;;;;;;4982877;28;20039;-60
2021/07/10 12:48:33;;;;;;;12.18;5.95;;;;;;;;;;4977304;28;20042;-59
2021/07/10 12:51:01;;;;;;;10.90;5.53;;;;;;;;;;4982496;28;20049;-60
2021/07/10 12:53:31;;;;;;;12.20;5.57;;;;;;;;;;4978655;28;20055;-59
2021/07/10 12:56:11;;;;;;;14.30;7.40;;;;;;;;;;4981533;28;20117;-60
2021/07/10 12:58:39;;;;;;;10.25;5.55;;;;;;;;;;4978149;28;20038;-60
2021/07/10 13:01:05;;;;;;;9.37;5.20;;;;;;;;;;4982700;28;20042;-60
2021/07/10 13:03:32;;;;;;;11.73;4.72;;;;;;;;;;4979583;28;20292;-59
2021/07/10 13:06:02;;;;;;;9.73;5.20;;;;;;;;;;5001540;28;20042;-59
2021/07/10 13:08:29;;;;;;;13.73;5.50;;;;;;;;;;4980910;28;20054;-60
2021/07/10 13:11:06;;;;;;;18.52;5.50;;;;;;;;;;4983891;28;20125;-59
2021/07/10 13:13:35;;;;;;;13.27;6.53;;;;;;;;;;4982741;28;20125;-59
2021/07/10 13:16:04;;;;;;;12.38;5.03;;;;;;;;;;5002950;28;20038;-60
2021/07/10 13:18:31;;;;;;;14.27;6.28;;;;;;;;;;5000499;28;20034;-60
2021/07/10 13:20:58;;;;;;;10.48;5.78;;;;;;;;;;4964833;28;20047;-59
2021/07/10 13:23:42;;;;;;;114.65;7.75;;;;;;;;;;4966684;28;20035;-57
2021/07/10 13:26:10;;;;;;;11.95;6.05;;;;;;;;;;5008524;28;20042;-58
2021/07/10 13:28:38;;;;;;;13.82;7.25;;;;;;;;;;5004043;28;20049;-58
2021/07/10 13:31:09;;;;;;;9.50;5.38;;;;;;;;;;4983430;28;20038;-58
2021/07/10 13:33:36;;;;;;;10.88;5.68;;;;;;;;;;4985083;28;20117;-58
2021/07/10 13:36:03;;;;;;;13.05;5.65;;;;;;;;;;5009398;28;20148;-58
2021/07/10 13:38:34;;;;;;;19.75;5.75;;;;;;;;;;5011176;28;20303;-57
2021/07/10 13:41:12;;;;;;;10.63;5.75;;;;;;;;;;4999871;28;20046;-58
2021/07/10 13:43:38;;;;;;;13.52;7.15;;;;;;;;;;5002654;28;20053;-59
2021/07/10 13:46:08;;;;;;;13.13;5.53;;;;;;;;;;5000008;28;20042;-58
2021/07/10 13:48:35;;;;;;;45.03;6.47;;;;;;;;;;5003086;28;20034;-57
2021/07/10 13:51:03;;;;;;;11.93;5.85;;;;;;;;;;4986553;28;20087;-58
2021/07/10 13:53:30;;;;;;;15.52;7.07;;;;;;;;;;4986138;28;20048;-57
2021/07/10 13:56:15;;;;;;;32.85;7.85;;;;;;;;;;4987654;28;20081;-57
2021/07/10 13:58:41;;;;;;;18.23;6.60;;;;;;;;;;5003037;28;20055;-58
2021/07/10 14:01:08;;;;;;;11.13;6.13;;;;;;;;;;4999040;28;20042;-58
2021/07/10 14:03:34;;;;;;;11.30;6.18;;;;;;;;;;5001861;28;20074;-58
2021/07/10 14:06:01;;;;;;;12.65;5.60;;;;;;;;;;4994462;28;20042;-58
2021/07/10 14:08:27;;;;;;;9.23;5.25;;;;;;;;;;4985864;28;20120;-58
2021/07/10 14:10:54;;;;;;;15.02;6.28;;;;;;;;;;4999411;28;20057;-58
2021/07/10 14:13:23;;;;;;;11.82;6.57;;;;;;;;;;5021063;28;20033;-58
2021/07/10 14:15:51;;;;;;;12.63;6.82;;;;;;;;;;5018908;28;20045;-58
2021/07/10 14:18:18;;;;;;;10.18;6.32;;;;;;;;;;5004241;28;20034;-59
2021/07/10 14:20:49;;;;;;;11.05;5.78;;;;;;;;;;5006881;28;20041;-58
2021/07/10 14:23:16;;;;;;;13.18;6.75;;;;;;;;;;5000889;28;20120;-58
2021/07/10 14:25:42;;;;;;;12.77;5.72;;;;;;;;;;5003384;28;20030;-58
2021/07/10 14:28:09;;;;;;;11.15;6.60;;;;;;;;;;4999301;28;20061;-58
2021/07/10 14:30:37;;;;;;;10.68;6.25;;;;;;;;;;5002497;28;20051;-57
2021/07/10 14:33:05;;;;;;;;;;;;;;;;;;5000290;28;20038;-58